createdAt,value
2023-01-12T00:00:37.127Z,81.21
2023-01-12T00:03:20.933Z,81.32
2023-01-12T00:05:50.303Z,80.64
2023-01-12T00:08:19.418Z,81.38
2023-01-12T00:10:48.896Z,81.04
2023-01-12T00:13:18.079Z,80.33
2023-01-12T00:16:02.722Z,79.95
2023-01-12T00:18:33.271Z,80.84
2023-01-12T00:21:02.669Z,80.34
2023-01-12T00:23:31.773Z,80.42
2023-01-12T00:26:01.263Z,80.92
2023-01-12T00:28:30.365Z,80.93
2023-01-12T00:31:04.039Z,80.93
2023-01-12T00:33:33.134Z,82.09
2023-01-12T00:36:05.067Z,82.04
2023-01-12T00:38:38.412Z,82.00
2023-01-12T00:41:08.779Z,81.41
2023-01-12T00:43:55.751Z,82.27
2023-01-12T00:46:33.222Z,82.71
2023-01-12T00:49:02.271Z,81.19
2023-01-12T00:51:31.635Z,82.51
2023-01-12T00:54:04.465Z,81.78
2023-01-12T00:56:33.934Z,82.36
2023-01-12T00:59:03.533Z,81.79
2023-01-12T01:01:34.954Z,80.51
2023-01-12T01:04:04.141Z,80.01
2023-01-12T01:06:33.498Z,80.64
2023-01-12T01:09:02.693Z,81.53
2023-01-12T01:11:32.193Z,81.33
2023-01-12T01:14:01.850Z,80.66
2023-01-12T01:16:31.824Z,81.54
2023-01-12T01:19:03.302Z,81.65
2023-01-12T01:21:33.135Z,82.66
2023-01-12T01:24:02.714Z,81.73
2023-01-12T01:26:32.122Z,81.04
2023-01-12T01:29:01.335Z,81.02
2023-01-12T01:31:30.748Z,80.72
2023-01-12T01:34:01.318Z,80.35
2023-01-12T01:36:31.265Z,80.15
2023-01-12T01:39:00.462Z,80.35
2023-01-12T01:41:32.212Z,81.00
2023-01-12T01:44:03.598Z,81.29
2023-01-12T01:46:41.422Z,81.74
2023-01-12T01:49:26.184Z,80.40
2023-01-12T01:52:00.232Z,79.79
2023-01-12T01:54:32.124Z,79.79
2023-01-12T01:57:02.266Z,81.07
2023-01-12T01:59:36.131Z,80.20
2023-01-12T02:02:06.340Z,80.96
2023-01-12T02:04:37.995Z,80.23
2023-01-12T02:07:08.589Z,80.51
2023-01-12T02:09:38.286Z,80.41
2023-01-12T02:12:26.918Z,80.29
2023-01-12T02:15:14.217Z,80.19
2023-01-12T02:17:59.727Z,81.10
2023-01-12T02:20:48.609Z,81.24
2023-01-12T02:23:53.455Z,81.64
2023-01-12T02:27:13.530Z,80.52
2023-01-12T02:30:25.179Z,80.16
2023-01-12T02:33:04.503Z,80.30
2023-01-12T02:35:43.842Z,80.87
2023-01-12T02:38:21.488Z,81.74
2023-01-12T02:40:59.453Z,80.36
2023-01-12T02:43:30.069Z,79.69
2023-01-12T02:46:05.469Z,80.44
2023-01-12T02:48:41.608Z,80.75
2023-01-12T02:51:16.509Z,81.57
2023-01-12T02:53:50.633Z,81.00
2023-01-12T02:56:24.208Z,82.63
2023-01-12T02:58:58.041Z,82.62
2023-01-12T03:01:30.335Z,81.98
2023-01-12T03:04:04.860Z,81.30
2023-01-12T03:06:43.449Z,82.25
2023-01-12T03:09:13.050Z,83.01
2023-01-12T03:11:44.274Z,82.71
2023-01-12T03:14:15.910Z,82.17
2023-01-12T03:16:45.360Z,82.71
2023-01-12T03:19:21.023Z,82.08
2023-01-12T03:21:54.458Z,82.22
2023-01-12T03:24:27.735Z,83.23
2023-01-12T03:27:01.747Z,82.32
2023-01-12T03:29:35.619Z,82.95
2023-01-12T03:33:45.169Z,83.51
2023-01-12T03:36:24.178Z,81.68
2023-01-12T03:39:02.409Z,83.25
2023-01-12T03:41:41.595Z,82.81
2023-01-12T03:44:18.268Z,81.46
2023-01-12T03:46:56.548Z,80.84
2023-01-12T03:49:33.738Z,81.13
2023-01-12T03:52:08.031Z,80.96
2023-01-12T03:54:40.366Z,82.31
2023-01-12T03:57:12.226Z,80.54
2023-01-12T03:59:42.009Z,81.47
2023-01-12T04:02:11.494Z,81.34
2023-01-12T04:04:40.679Z,81.77
2023-01-12T04:07:11.459Z,81.50
2023-01-12T04:09:40.543Z,81.99
2023-01-12T04:12:13.705Z,82.05
2023-01-12T04:14:46.873Z,81.90
2023-01-12T04:17:17.331Z,82.10
2023-01-12T04:19:46.444Z,82.47
2023-01-12T04:22:35.808Z,81.87
2023-01-12T04:25:07.087Z,82.24
2023-01-12T04:27:37.420Z,82.40
2023-01-12T04:30:07.434Z,82.42
2023-01-12T04:32:36.988Z,81.96
2023-01-12T04:35:07.237Z,81.73
2023-01-12T04:37:38.109Z,82.37
2023-01-12T04:40:09.178Z,82.43
2023-01-12T04:43:07.187Z,82.39
2023-01-12T04:45:38.266Z,82.68
2023-01-12T04:48:09.955Z,82.58
2023-01-12T04:50:40.424Z,82.23
2023-01-12T04:53:12.888Z,82.42
2023-01-12T04:55:44.037Z,82.41
2023-01-12T04:58:13.865Z,82.85
2023-01-12T05:00:42.908Z,82.96
2023-01-12T05:03:14.227Z,81.22
2023-01-12T05:05:43.614Z,82.11
2023-01-12T05:08:32.020Z,81.88
2023-01-12T05:11:02.484Z,81.91
2023-01-12T05:13:33.131Z,81.32
2023-01-12T05:16:10.660Z,80.73
2023-01-12T05:18:40.038Z,79.76
2023-01-12T05:21:09.369Z,80.64
2023-01-12T05:23:40.380Z,80.64
2023-01-12T05:26:10.135Z,80.46
2023-01-12T05:28:39.633Z,80.65
2023-01-12T05:31:11.581Z,80.20
2023-01-12T05:33:42.417Z,79.86
2023-01-12T05:36:14.233Z,80.79
2023-01-12T05:38:45.303Z,81.50
2023-01-12T05:41:14.931Z,81.71
2023-01-12T05:43:50.545Z,80.98
2023-01-12T05:46:22.149Z,81.02
2023-01-12T05:48:52.915Z,80.42
2023-01-12T05:51:22.269Z,80.78
2023-01-12T05:53:53.355Z,80.38
2023-01-12T05:56:25.749Z,79.19
2023-01-12T05:58:57.173Z,79.15
2023-01-12T06:01:26.938Z,79.69
2023-01-12T06:03:58.461Z,79.22
2023-01-12T06:06:31.152Z,79.77
2023-01-12T06:09:03.365Z,80.36
2023-01-12T06:11:49.799Z,78.86
2023-01-12T06:14:19.386Z,80.95
2023-01-12T06:16:48.589Z,80.00
2023-01-12T06:19:17.661Z,80.39
2023-01-12T06:21:47.003Z,80.00
2023-01-12T06:24:17.638Z,80.23
2023-01-12T06:26:47.119Z,79.29
2023-01-12T06:29:16.149Z,80.04
2023-01-12T06:31:45.465Z,79.37
2023-01-12T06:34:14.614Z,80.36
2023-01-12T06:36:44.010Z,80.11
2023-01-12T06:39:14.151Z,80.33
2023-01-12T06:42:02.129Z,80.89
2023-01-12T06:44:31.213Z,80.04
2023-01-12T06:47:00.581Z,80.33
2023-01-12T06:49:29.688Z,80.08
2023-01-12T06:51:59.083Z,80.64
2023-01-12T06:54:28.323Z,79.17
2023-01-12T07:06:38.073Z,79.41
2023-01-12T07:12:02.117Z,79.91
2023-01-12T07:20:34.410Z,79.01
2023-01-12T07:23:04.933Z,78.87
2023-01-12T07:25:34.419Z,78.80
2023-01-12T07:28:03.616Z,78.61
2023-01-12T07:30:33.518Z,78.26
2023-01-12T07:33:08.564Z,77.72
2023-01-12T07:35:38.079Z,77.16
2023-01-12T07:38:08.590Z,77.64
2023-01-12T07:40:38.315Z,76.90
2023-01-12T07:43:09.556Z,77.55
2023-01-12T07:45:38.980Z,77.85
2023-01-12T07:48:08.298Z,77.74
2023-01-12T07:50:38.165Z,77.21
2023-01-12T07:53:08.608Z,77.63
2023-01-12T07:55:39.676Z,77.09
2023-01-12T07:58:09.773Z,77.27
2023-01-12T08:00:39.374Z,76.95
2023-01-12T08:03:11.857Z,77.12
2023-01-12T08:05:41.545Z,76.97
2023-01-12T08:08:12.130Z,76.13
2023-01-12T08:10:43.525Z,75.74
2023-01-12T08:13:12.920Z,76.33
2023-01-12T08:15:45.906Z,76.25
2023-01-12T08:18:19.426Z,75.26
2023-01-12T08:20:49.137Z,76.48
2023-01-12T08:23:24.751Z,76.11
2023-01-12T08:25:59.267Z,76.12
2023-01-12T08:28:34.830Z,75.98
2023-01-12T08:31:04.750Z,75.13
2023-01-12T08:33:35.163Z,74.15
2023-01-12T08:36:06.890Z,74.14
2023-01-12T08:38:37.448Z,74.66
2023-01-12T08:41:24.900Z,74.53
2023-01-12T08:44:03.300Z,74.22
2023-01-12T08:46:34.955Z,74.09
2023-01-12T08:49:05.807Z,73.36
2023-01-12T08:51:35.699Z,73.30
2023-01-12T08:54:06.599Z,72.87
2023-01-12T08:56:36.593Z,72.77
2023-01-12T08:59:06.467Z,73.09
2023-01-12T09:01:37.462Z,73.76
2023-01-12T09:04:10.428Z,73.78
2023-01-12T09:06:43.001Z,73.61
2023-01-12T09:09:16.973Z,73.55
2023-01-12T09:11:47.748Z,72.70
2023-01-12T09:14:18.383Z,73.44
2023-01-12T09:16:48.006Z,74.07
2023-01-12T09:19:17.300Z,74.03
2023-01-12T09:21:47.137Z,73.73
2023-01-12T09:24:17.964Z,73.13
2023-01-12T09:26:48.379Z,73.63
2023-01-12T09:29:17.667Z,74.05
2023-01-12T09:31:47.539Z,73.79
2023-01-12T09:34:16.801Z,73.72
2023-01-12T09:36:46.587Z,73.50
2023-01-12T09:39:27.521Z,73.48
2023-01-12T09:42:12.667Z,73.87
2023-01-12T09:45:01.670Z,73.25
2023-01-12T09:47:36.822Z,73.03
2023-01-12T09:50:10.901Z,72.55
2023-01-12T09:52:45.356Z,70.37
2023-01-12T09:55:20.246Z,69.91
2023-01-12T09:58:11.802Z,67.94
2023-01-12T10:00:41.036Z,68.46
2023-01-12T10:03:24.257Z,70.04
2023-01-12T10:05:55.137Z,71.60
2023-01-12T10:08:33.699Z,70.10
2023-01-12T10:11:12.150Z,64.02
2023-01-12T10:14:09.798Z,64.35
2023-01-12T10:16:49.956Z,66.31
2023-01-12T10:19:26.311Z,65.88
2023-01-12T10:21:56.263Z,68.12
2023-01-12T10:24:27.267Z,68.55
2023-01-12T10:27:05.812Z,69.02
2023-01-12T10:29:35.265Z,69.52
2023-01-12T10:32:04.465Z,69.94
2023-01-12T10:34:51.968Z,70.54
2023-01-12T10:37:21.314Z,71.13
2023-01-12T10:39:54.236Z,71.56
2023-01-12T10:42:43.792Z,69.70
2023-01-12T10:45:18.757Z,70.52
2023-01-12T10:47:49.091Z,70.68
2023-01-12T10:50:24.395Z,68.71
2023-01-12T10:53:01.349Z,70.29
2023-01-12T10:55:36.281Z,71.92
2023-01-12T10:58:17.865Z,72.15
2023-01-12T11:00:52.184Z,72.87
2023-01-12T11:03:33.233Z,72.13
2023-01-12T11:06:33.136Z,72.03
2023-01-12T11:09:20.051Z,73.27
2023-01-12T11:11:53.903Z,73.00
2023-01-12T11:14:33.023Z,71.75
2023-01-12T11:17:22.766Z,72.17
2023-01-12T11:19:53.152Z,71.95
2023-01-12T11:22:27.624Z,71.52
2023-01-12T11:25:02.329Z,71.11
2023-01-12T11:27:37.156Z,70.86
2023-01-12T11:30:17.801Z,71.02
2023-01-12T11:32:54.798Z,70.88
2023-01-12T11:35:34.712Z,71.08
2023-01-12T11:38:12.646Z,71.78
2023-01-12T11:40:43.391Z,72.70
2023-01-12T11:43:48.679Z,71.94
2023-01-12T11:46:26.631Z,72.09
2023-01-12T11:49:04.485Z,72.53
2023-01-12T11:51:33.887Z,72.35
2023-01-12T11:54:03.594Z,72.27
2023-01-12T11:57:03.521Z,71.53
2023-01-12T11:59:41.541Z,72.47
2023-01-12T12:02:25.725Z,72.04
2023-01-12T12:05:07.769Z,71.62
2023-01-12T12:07:53.173Z,71.49
2023-01-12T12:10:27.801Z,72.67
2023-01-12T12:13:31.907Z,72.13
2023-01-12T12:16:20.000Z,70.94
2023-01-12T12:19:03.414Z,70.16
2023-01-12T12:21:50.712Z,69.93
2023-01-12T12:24:55.622Z,70.16
2023-01-12T12:27:37.429Z,70.60
2023-01-12T12:30:37.310Z,70.69
2023-01-12T12:33:18.135Z,69.91
2023-01-12T12:36:02.341Z,69.39
2023-01-12T12:38:45.164Z,70.07
2023-01-12T12:41:42.125Z,67.79
2023-01-12T12:44:42.846Z,66.18
2023-01-12T12:47:34.609Z,62.89
2023-01-12T12:50:05.527Z,65.96
2023-01-12T12:52:36.340Z,67.61
2023-01-12T12:55:06.769Z,69.32
2023-01-12T12:58:00.163Z,70.21
2023-01-12T13:00:42.984Z,70.74
2023-01-12T13:03:12.529Z,70.13
2023-01-12T13:05:45.423Z,71.75
2023-01-12T13:08:23.139Z,71.61
2023-01-12T13:10:55.135Z,70.55
2023-01-12T13:13:33.845Z,70.00
2023-01-12T13:16:46.162Z,71.05
2023-01-12T13:19:31.741Z,70.24
2023-01-12T13:22:17.121Z,71.24
2023-01-12T13:24:47.867Z,70.83
2023-01-12T13:27:49.297Z,71.07
2023-01-12T13:30:42.086Z,70.82
2023-01-12T13:33:27.797Z,71.78
2023-01-12T13:36:11.826Z,71.55
2023-01-12T13:39:07.365Z,71.44
2023-01-12T13:41:56.676Z,71.59
2023-01-12T13:44:31.682Z,71.59
2023-01-12T13:47:09.569Z,71.41
2023-01-12T13:49:48.930Z,71.41
2023-01-12T13:52:28.123Z,71.05
2023-01-12T13:54:57.923Z,71.14
2023-01-12T13:57:30.256Z,71.22
2023-01-12T14:00:04.404Z,71.23
2023-01-12T14:02:42.713Z,70.63
2023-01-12T14:05:26.829Z,71.36
2023-01-12T14:08:07.809Z,71.91
2023-01-12T14:10:43.989Z,72.74
2023-01-12T14:13:39.175Z,73.63
2023-01-12T14:16:31.494Z,72.26
2023-01-12T14:19:00.635Z,73.26
2023-01-12T14:21:33.382Z,73.54
2023-01-12T14:24:26.557Z,73.25
2023-01-12T14:26:56.293Z,72.90
2023-01-12T14:29:26.993Z,72.25
2023-01-12T14:31:56.779Z,72.75
2023-01-12T14:34:32.529Z,72.05
2023-01-12T14:37:03.451Z,71.69
2023-01-12T14:39:41.111Z,72.14
2023-01-12T14:42:35.922Z,71.13
2023-01-12T14:45:42.052Z,71.58
2023-01-12T14:48:22.395Z,71.09
2023-01-12T14:51:02.994Z,71.79
2023-01-12T14:53:36.726Z,70.28
2023-01-12T14:56:18.593Z,71.42
2023-01-12T14:58:48.966Z,71.98
2023-01-12T15:01:33.024Z,71.67
2023-01-12T15:04:03.024Z,71.27
2023-01-12T15:06:33.215Z,70.87
2023-01-12T15:09:02.974Z,71.09
2023-01-12T15:11:35.390Z,71.42
2023-01-12T15:14:07.257Z,70.99
2023-01-12T15:16:55.407Z,71.68
2023-01-12T15:19:42.415Z,71.38
2023-01-12T15:22:30.004Z,70.94
2023-01-12T15:25:18.203Z,71.34
2023-01-12T15:27:47.525Z,70.37
2023-01-12T15:30:17.411Z,70.87
2023-01-12T15:32:48.678Z,70.58
2023-01-12T15:35:23.667Z,71.30
2023-01-12T15:37:54.409Z,70.76
2023-01-12T15:40:26.160Z,70.86
2023-01-12T15:42:55.386Z,71.86
2023-01-12T15:45:35.799Z,71.90
2023-01-12T15:48:07.795Z,71.32
2023-01-12T15:50:40.752Z,71.31
2023-01-12T15:53:15.664Z,71.10
2023-01-12T15:55:45.219Z,70.87
2023-01-12T15:58:14.410Z,70.67
2023-01-12T16:00:45.604Z,70.66
2023-01-12T16:03:48.232Z,70.43
2023-01-12T16:06:06.352Z,70.40
2023-01-12T16:08:35.513Z,69.71
2023-01-12T16:11:13.422Z,70.46
2023-01-12T16:13:43.115Z,70.32
2023-01-12T16:16:16.173Z,69.84
2023-01-12T16:18:47.803Z,69.84
2023-01-12T16:21:19.251Z,69.85
2023-01-12T16:23:48.657Z,69.49
2023-01-12T16:26:18.197Z,70.03
2023-01-12T16:28:47.291Z,69.73
2023-01-12T16:31:16.830Z,69.41
2023-01-12T16:33:47.554Z,69.55
2023-01-12T16:36:17.693Z,69.30
2023-01-12T16:38:46.880Z,69.12
2023-01-12T16:41:20.015Z,70.46
2023-01-12T16:43:49.135Z,73.23
2023-01-12T16:46:19.255Z,74.66
2023-01-12T16:48:49.830Z,76.06
2023-01-12T16:51:20.637Z,76.01
2023-01-12T16:53:51.499Z,75.95
2023-01-12T16:56:20.959Z,75.85
2023-01-12T16:58:50.123Z,76.02
2023-01-12T17:01:22.207Z,75.47
2023-01-12T17:03:57.905Z,75.55
2023-01-12T17:06:29.650Z,75.07
2023-01-12T17:09:01.886Z,75.26
2023-01-12T17:11:32.768Z,75.53
2023-01-12T17:14:22.149Z,75.91
2023-01-12T17:16:52.896Z,75.83
2023-01-12T17:19:24.258Z,75.32
2023-01-12T17:21:55.021Z,75.13
2023-01-12T17:24:25.459Z,74.43
2023-01-12T17:26:56.592Z,74.67
2023-01-12T17:29:27.507Z,74.55
2023-01-12T17:32:05.103Z,75.13
2023-01-12T17:34:39.559Z,75.10
2023-01-12T17:37:09.706Z,75.10
2023-01-12T17:39:40.805Z,74.30
2023-01-12T17:42:29.887Z,74.81
2023-01-12T17:44:59.064Z,75.11
2023-01-12T17:47:28.742Z,74.58
2023-01-12T17:49:59.407Z,75.49
2023-01-12T17:52:29.178Z,76.23
2023-01-12T17:54:58.450Z,75.95
2023-01-12T17:57:27.995Z,75.73
2023-01-12T17:59:57.232Z,75.30
2023-01-12T18:02:26.824Z,75.94
2023-01-12T18:04:56.731Z,74.98
2023-01-12T18:07:27.639Z,74.82
2023-01-12T18:09:57.093Z,75.33
2023-01-12T18:12:27.572Z,75.32
2023-01-12T18:14:56.771Z,75.78
2023-01-12T18:17:26.284Z,75.87
2023-01-12T18:19:55.579Z,76.09
2023-01-12T18:22:26.401Z,75.85
2023-01-12T18:24:55.636Z,75.57
2023-01-12T18:27:26.873Z,76.09
2023-01-12T18:29:56.107Z,76.67
2023-01-12T18:32:25.623Z,76.88
2023-01-12T18:34:56.317Z,76.90
2023-01-12T18:37:27.221Z,77.27
2023-01-12T18:39:56.355Z,77.54
2023-01-12T18:42:43.275Z,76.68
2023-01-12T18:45:12.681Z,76.39
2023-01-12T18:47:59.252Z,76.15
2023-01-12T18:50:47.366Z,76.65
2023-01-12T18:53:25.228Z,76.17
2023-01-12T18:55:57.241Z,75.23
2023-01-12T18:58:28.542Z,75.26
2023-01-12T19:00:58.485Z,75.54
2023-01-12T19:03:28.003Z,75.15
2023-01-12T19:06:01.079Z,75.22
2023-01-12T19:08:50.117Z,74.71
2023-01-12T19:11:19.301Z,74.57
2023-01-12T19:14:06.250Z,74.74
2023-01-12T19:16:53.270Z,75.69
2023-01-12T19:19:25.184Z,75.92
2023-01-12T19:22:12.267Z,75.85
2023-01-12T19:25:00.801Z,74.91
2023-01-12T19:27:47.377Z,75.49
2023-01-12T19:30:17.536Z,76.24
2023-01-12T19:32:46.925Z,75.98
2023-01-12T19:35:16.538Z,76.92
2023-01-12T19:37:49.682Z,76.07
2023-01-12T19:40:26.380Z,75.78
2023-01-12T19:43:14.165Z,76.79
2023-01-12T19:45:45.172Z,76.53
2023-01-12T19:48:17.157Z,76.83
2023-01-12T19:50:46.760Z,76.61
2023-01-12T19:53:18.610Z,78.32
2023-01-12T19:55:51.245Z,79.43
2023-01-12T19:58:22.852Z,80.17
2023-01-12T20:00:54.819Z,80.05
2023-01-12T20:03:25.252Z,79.80
2023-01-12T20:05:54.761Z,78.78
2023-01-12T20:08:26.509Z,78.94
2023-01-12T20:10:59.461Z,78.78
2023-01-12T20:13:29.281Z,79.44
2023-01-12T20:15:58.839Z,79.73
2023-01-12T20:18:28.393Z,79.72
2023-01-12T20:20:59.712Z,79.86
2023-01-12T20:23:29.078Z,81.07
2023-01-12T20:26:00.056Z,80.33
2023-01-12T20:28:29.416Z,80.76
2023-01-12T20:30:59.456Z,79.88
2023-01-12T20:33:29.199Z,78.88
2023-01-12T20:35:58.660Z,78.19
2023-01-12T20:38:27.917Z,78.27
2023-01-12T20:40:59.018Z,78.07
2023-01-12T20:43:28.264Z,78.04
2023-01-12T20:45:57.874Z,78.90
2023-01-12T20:48:27.513Z,78.70
2023-01-12T20:50:57.061Z,78.74
2023-01-12T20:53:31.379Z,79.01
2023-01-12T20:56:02.548Z,79.36
2023-01-12T20:58:31.731Z,80.45
2023-01-12T21:01:01.284Z,80.79
2023-01-12T21:03:30.596Z,80.28
2023-01-12T21:06:01.096Z,80.81
2023-01-12T21:08:30.257Z,81.43
2023-01-12T21:11:02.057Z,82.11
2023-01-12T21:13:31.200Z,81.52
2023-01-12T21:16:02.703Z,81.74
2023-01-12T21:18:32.516Z,81.32
2023-01-12T21:21:02.323Z,81.89
2023-01-12T21:23:31.623Z,80.99
2023-01-12T21:26:06.467Z,81.46
2023-01-12T21:28:37.671Z,80.84
2023-01-12T21:31:08.604Z,82.29
2023-01-12T21:33:37.929Z,81.85
2023-01-12T21:36:08.233Z,81.75
2023-01-12T21:38:37.505Z,82.81
2023-01-12T21:41:08.929Z,82.14
2023-01-12T21:43:37.172Z,82.53
2023-01-12T21:46:08.556Z,82.94
2023-01-12T21:48:38.130Z,82.07
2023-01-12T21:51:09.076Z,82.07
2023-01-12T21:53:38.215Z,81.35
2023-01-12T21:56:11.584Z,81.05
2023-01-12T21:58:40.876Z,80.40
2023-01-12T22:01:11.944Z,80.20
2023-01-12T22:03:41.645Z,80.75
2023-01-12T22:06:13.430Z,80.23
2023-01-12T22:08:43.477Z,79.49
2023-01-12T22:11:16.760Z,78.81
2023-01-12T22:13:46.161Z,78.48
2023-01-12T22:16:17.142Z,78.43
2023-01-12T22:18:49.360Z,77.94
2023-01-12T22:21:20.552Z,78.21
2023-01-12T22:23:51.039Z,77.37
2023-01-12T22:26:21.921Z,76.57
2023-01-12T22:28:51.382Z,76.08
2023-01-12T22:31:22.901Z,76.62
2023-01-12T22:33:57.550Z,77.27
2023-01-12T22:36:27.329Z,76.88
2023-01-12T22:38:57.295Z,76.82
2023-01-12T22:41:28.072Z,77.07
2023-01-12T22:43:57.641Z,77.07
2023-01-12T22:46:28.810Z,76.93
2023-01-12T22:49:00.448Z,76.29
2023-01-12T22:51:31.369Z,75.92
2023-01-12T22:54:01.188Z,75.66
2023-01-12T22:56:31.948Z,76.51
2023-01-12T22:59:01.178Z,76.45
2023-01-12T23:01:30.898Z,76.86
2023-01-12T23:04:00.231Z,76.91
2023-01-12T23:06:30.126Z,76.02
2023-01-12T23:08:59.273Z,76.93
2023-01-12T23:11:30.318Z,76.56
2023-01-12T23:13:59.492Z,77.23
2023-01-12T23:16:29.011Z,78.78
2023-01-12T23:18:58.245Z,77.56
2023-01-12T23:21:29.381Z,77.17
2023-01-12T23:24:00.235Z,76.86
2023-01-12T23:26:33.882Z,78.45
2023-01-12T23:29:03.940Z,77.67
2023-01-12T23:31:34.799Z,78.83
2023-01-12T23:34:04.253Z,78.28
2023-01-12T23:36:34.257Z,78.37
2023-01-12T23:39:05.667Z,77.67
2023-01-12T23:41:38.148Z,78.19
2023-01-12T23:44:09.164Z,77.88
2023-01-12T23:46:43.091Z,78.28
2023-01-12T23:49:13.233Z,77.97
2023-01-12T23:51:42.873Z,78.12
2023-01-12T23:54:14.177Z,78.68
2023-01-12T23:56:45.103Z,78.27
2023-01-12T23:59:14.236Z,78.38
